Locharbriggs, United Kingdom
Current Conditions -  °F | °C
As of 3:50 AM on Monday 26 Jan 2015 (Local Time) from EGOM Reporting Station
Scattered Clouds Scattered Clouds  
Wind Chill: 28°   Ceiling: Unl
Heat Index: 39°   Visibility: 6mi
Dew Point: 39°   Wind: 24mph
Humidity: 100%   Direction: 270°W
Pressure: 29.94"   Gusts: NA
Location:  55.1°N, 3.58°W
Report Text: EGOM 260350Z AUTO 27021KT 9999 SCT006/// 04/04 Q1014 REDZ
Loading
Personal Weather Stations






























Interactive Weather Map New forecast layout! Learn more

10-Day Weather Forecast

Advertisements
Track Severe Weather on mobile